< < Back
Terminal Aerodrome Forecast


Current Version              Previous Versions:   1  2  3  4  5  6  7  8  9  

Terminal Aerodrome Forecast

374
FTUS42 KJAX 011700
TAFGNV
TAF
KGNV 011723Z 0118/0218 03006KT P6SM VCSH BKN030 OVC060
     FM020000 03002KT P6SM SCT030 BKN060
     FM020700 00000KT 3SM BR BKN030 BKN060
      TEMPO 0208/0212 1SM BR BKN010
     FM021400 05006KT P6SM SCT030 BKN060=



Latest METAR

363
SAUS70 KWBC 020958
MTRGNV
METAR KGNV 020953Z AUTO 00000KT 10SM CLR 22/21 A3000 RMK AO2 SLP156
T02170211


USA.gov is the U.S. government's official web portal to all federal, state and local government web resources and services.